Bei Facebook empfehlenBei Twitter postenGoogle plusPinterest

Das Wetter im Erzgebirge am 02.02.2016

Wetter und Klima am 02.02.2016 Holzhau im Erzgebirge (630m ü.NN)
Letzte gemessene Temperatur und Uhrzeit der Messung23:45:00 Uhr2.80 °C
Temperatur (Maximum / Höchstwert) und Uhrzeit der Messung14:15:00 Uhr9.80 °C
Temperatur (Minimum / Tiefstwert) und Uhrzeit der Messung23:45:002.80 °C
Errechneter Absolutwert der Temperaturschwankungen zwischen Tmin und Tmax des Tages7.00 K
Errechnete Tagesmitteltemperatur7.60104 °C
Gesamt - Niederschlag des Tages (in flüssiger Form)3.63 Liter / m²
Luftdruck (Maximum / Höchstwert) und Zeitpunkt der Messung01:00:00 Uhr1012.80 hPa
Luftdruck (Minimum / Tiefstwert) und Zeitpunkt der Messung20:00:00 Uhr1006.10 hPa
Errechneter Absolutwert der Luftdruckschwankungen des Tages6.70 hPa
Höchste gemessene Windgeschwindigkeit und Uhrzeit der Messung11:45:00 Uhr183.60 km/h
Errechnete Windhäufigkeit in Relation zu den Messwerten des Tages85.41667 %
Niedrigste Windkühle (Windchill) und Zeitpunkt der Messung23:15:00 Uhr-0.20 °C
Taupunkt (Maximum / Höchstwert) und Uhrzeit der Messung14:15:00 Uhr6.30 °C
Taupunkt (Minimum / Tiefstwert) und Uhrzeit der Messung23:45:001.80 °C
Anzahl der automatisch eingelesenen Messwerte 96

Detaillierte Wetter- und Klima- Messwerte für den 02.02.2016 in Holzhau im Erzgebirge (630m ü.NN)
ZeitTemperaturLuftdruckRel. LuftfeuchteWindWindrichtungWindchillTaupunktNiederschlag l/m²
23:45:002.80 °C1009.10 hPa93.00 %4.32 km/hW2.80 °C1.80 °C3.63
23:30:003.40 °C1009.10 hPa93.00 %12.24 km/hNNW0.30 °C2.40 °C3.63
23:15:003.60 °C1008.60 hPa93.00 %16.56 km/hW-0.20 °C2.60 °C3.11
23:00:003.60 °C1008.50 hPa92.00 %3.60 km/hW3.60 °C2.40 °C3.11
22:45:003.80 °C1008.20 hPa92.00 %2.60 °C2.59
22:30:003.90 °C1008.10 hPa92.00 %9.72 km/hNW1.40 °C2.70 °C2.59
22:15:004.10 °C1008.00 hPa92.00 %12.60 km/hWNW1.10 °C2.90 °C2.59
22:00:004.20 °C1007.80 hPa91.00 %10.44 km/hWSW1.60 °C2.90 °C2.59
21:45:004.30 °C1007.70 hPa91.00 %5.40 km/hW3.10 °C3.00 °C2.08
21:30:004.30 °C1007.60 hPa90.00 %3.24 km/hNW4.30 °C2.80 °C2.08
21:15:004.30 °C1007.50 hPa90.00 %2.52 km/hWNW4.30 °C2.80 °C1.56
21:00:004.40 °C1007.50 hPa88.00 %15.48 km/hWNW0.90 °C2.60 °C1.56
20:45:004.70 °C1007.30 hPa87.00 %3.96 km/hWNW4.70 °C2.70 °C1.56
20:30:005.30 °C1007.10 hPa86.00 %7.56 km/hSW3.60 °C3.20 °C1.04
20:15:006.90 °C1006.90 hPa83.00 %2.52 km/hNW6.90 °C4.20 °C0.52
20:00:008.30 °C1006.10 hPa83.00 %4.32 km/hWSW8.30 °C5.60 °C 
19:45:008.30 °C1006.10 hPa83.00 %8.64 km/hWNW6.90 °C5.60 °C 
19:30:008.30 °C1006.30 hPa83.00 %14.04 km/hNNW5.90 °C5.60 °C 
19:15:008.30 °C1006.30 hPa83.00 %3.60 km/hNW8.30 °C5.60 °C 
19:00:008.30 °C1006.50 hPa83.00 %11.88 km/hWSW6.30 °C5.60 °C 
18:45:008.20 °C1006.70 hPa84.00 %10.08 km/hNW6.50 °C5.70 °C 
18:30:008.20 °C1006.50 hPa84.00 %14.76 km/hWNW5.70 °C5.70 °C 
18:15:008.20 °C1006.80 hPa83.00 %19.44 km/hNW5.20 °C5.50 °C 
18:00:008.30 °C1006.80 hPa83.00 %10.08 km/hWNW6.60 °C5.60 °C 
17:45:008.20 °C1006.90 hPa83.00 %5.50 °C 
17:30:008.20 °C1006.90 hPa83.00 %23.76 km/hSSW4.70 °C5.50 °C 
17:15:008.20 °C1006.90 hPa83.00 %3.60 km/hWSW8.20 °C5.50 °C 
17:00:008.20 °C1007.00 hPa83.00 %5.50 °C 
16:45:008.30 °C1007.10 hPa82.00 %14.04 km/hS5.90 °C5.40 °C 
16:30:008.40 °C1007.40 hPa82.00 %10.80 km/hSW6.60 °C5.50 °C 
16:15:008.50 °C1008.00 hPa82.00 %5.60 °C 
16:00:008.70 °C1008.30 hPa81.00 %6.12 km/hW7.90 °C5.60 °C 
15:45:008.90 °C1008.70 hPa81.00 %5.80 °C 
15:30:009.00 °C1008.70 hPa80.00 %5.70 °C 
15:15:009.30 °C1008.80 hPa79.00 %7.92 km/hWNW8.20 °C5.90 °C 
15:00:009.40 °C1009.00 hPa79.00 %3.96 km/hSSW9.40 °C5.90 °C 
14:45:009.50 °C1009.00 hPa79.00 %6.00 °C 
14:30:009.60 °C1009.10 hPa79.00 %6.12 km/hSW9.00 °C6.10 °C 
14:15:009.80 °C1009.30 hPa79.00 %11.16 km/hNW8.20 °C6.30 °C 
14:00:009.60 °C1009.60 hPa80.00 %6.30 °C 
13:45:009.50 °C1009.70 hPa80.00 %11.52 km/hWSW7.80 °C6.20 °C 
13:30:009.30 °C1010.00 hPa81.00 %9.72 km/hSSW7.80 °C6.20 °C 
13:15:009.30 °C1010.10 hPa80.00 %7.92 km/hWNW8.20 °C6.00 °C 
13:00:009.40 °C1010.40 hPa80.00 %7.56 km/hWNW8.40 °C6.10 °C 
12:45:009.60 °C1010.50 hPa80.00 %7.92 km/hWNW8.60 °C6.30 °C 
12:30:009.50 °C1010.40 hPa80.00 %4.68 km/hWNW9.50 °C6.20 °C 
12:15:009.50 °C1010.50 hPa80.00 %2.16 km/hWNW9.50 °C6.20 °C 
12:00:009.40 °C1010.60 hPa80.00 %5.40 km/hWNW9.00 °C6.10 °C 
11:45:009.40 °C1010.50 hPa80.00 %183.60 km/hWSW1.40 °C6.10 °C 
11:30:009.40 °C1010.60 hPa80.00 %15.48 km/hW7.10 °C6.10 °C 
11:15:009.30 °C1010.60 hPa81.00 %9.36 km/hWSW7.90 °C6.20 °C 
11:00:009.20 °C1010.60 hPa82.00 %21.60 km/hWSW6.20 °C6.30 °C 
10:45:008.90 °C1010.20 hPa83.00 %5.40 km/hWSW8.40 °C6.20 °C 
10:30:008.60 °C1010.30 hPa83.00 %10.44 km/hNW6.90 °C5.90 °C 
10:15:008.50 °C1010.50 hPa84.00 %22.32 km/hSW5.30 °C6.00 °C 
10:00:008.40 °C1010.60 hPa84.00 %10.08 km/hSW6.70 °C5.90 °C 
09:45:008.30 °C1010.50 hPa84.00 %5.80 °C 
09:30:008.30 °C1010.50 hPa85.00 %6.12 km/hWSW7.50 °C5.90 °C 
09:15:008.20 °C1010.40 hPa85.00 %15.84 km/hW5.60 °C5.80 °C 
09:00:008.10 °C1010.70 hPa85.00 %5.70 °C 
08:45:008.10 °C1010.50 hPa85.00 %5.70 °C 
08:30:008.10 °C1010.70 hPa86.00 %3.96 km/hWNW8.10 °C5.90 °C 
08:15:007.80 °C1010.60 hPa86.00 %11.16 km/hNW5.80 °C5.60 °C 
08:00:007.80 °C1010.60 hPa86.00 %15.84 km/hWNW5.10 °C5.60 °C 
07:45:007.80 °C1010.50 hPa86.00 %8.28 km/hWNW6.40 °C5.60 °C 
07:30:007.80 °C1010.70 hPa86.00 %16.92 km/hNNW5.00 °C5.60 °C 
07:15:007.80 °C1010.60 hPa86.00 %8.64 km/hWSW6.30 °C5.60 °C 
07:00:007.80 °C1010.50 hPa86.00 %7.56 km/hW6.50 °C5.60 °C 
06:45:007.70 °C1010.60 hPa86.00 %7.20 km/hWNW6.50 °C5.50 °C 
06:30:007.80 °C1010.60 hPa86.00 %11.16 km/hSSW5.80 °C5.60 °C 
06:15:007.60 °C1010.60 hPa86.00 %10.44 km/hS5.70 °C5.40 °C 
06:00:007.60 °C1010.80 hPa86.00 %9.72 km/hWSW5.80 °C5.40 °C 
05:45:007.60 °C1011.00 hPa86.00 %11.52 km/hSW5.50 °C5.40 °C 
05:30:007.70 °C1011.00 hPa86.00 %12.96 km/hWNW5.40 °C5.50 °C 
05:15:007.60 °C1011.30 hPa86.00 %10.80 km/hN5.60 °C5.40 °C 
05:00:007.60 °C1011.40 hPa85.00 %3.60 km/hWNW7.60 °C5.20 °C 
04:45:007.60 °C1011.40 hPa85.00 %16.56 km/hW4.70 °C5.20 °C 
04:30:007.60 °C1011.30 hPa85.00 %11.88 km/hSSW5.40 °C5.20 °C 
04:15:007.50 °C1011.50 hPa85.00 %13.32 km/hWNW5.10 °C5.10 °C 
04:00:007.40 °C1011.50 hPa85.00 %12.24 km/hSW5.10 °C5.00 °C 
03:45:007.30 °C1011.80 hPa86.00 %9.00 km/hW5.60 °C5.10 °C 
03:30:007.30 °C1012.00 hPa86.00 %11.88 km/hW5.10 °C5.10 °C 
03:15:007.30 °C1011.90 hPa86.00 %14.04 km/hWNW4.70 °C5.10 °C 
03:00:007.30 °C1012.10 hPa87.00 %15.84 km/hWSW4.50 °C5.30 °C 
02:45:007.20 °C1012.20 hPa86.00 %3.60 km/hW7.20 °C5.00 °C 
02:30:007.20 °C1012.40 hPa86.00 %4.68 km/hNW7.20 °C5.00 °C 
02:15:007.20 °C1012.20 hPa86.00 %5.00 °C 
02:00:007.20 °C1012.40 hPa86.00 %3.96 km/hWNW7.20 °C5.00 °C 
01:45:007.20 °C1012.40 hPa86.00 %12.24 km/hW4.90 °C5.00 °C 
01:30:007.30 °C1012.60 hPa86.00 %8.64 km/hNW5.70 °C5.10 °C 
01:15:007.30 °C1012.60 hPa86.00 %16.20 km/hSW4.40 °C5.10 °C 
01:00:007.40 °C1012.80 hPa86.00 %15.12 km/hWNW4.70 °C5.20 °C 
00:45:007.20 °C1012.50 hPa86.00 %5.00 °C 
00:30:007.20 °C1012.40 hPa86.00 %5.00 °C 
00:15:007.00 °C1012.60 hPa86.00 %3.60 km/hW7.00 °C4.80 °C 
00:00:006.90 °C1012.70 hPa86.00 %2.16 km/hW6.90 °C4.70 °C 

Permanenter Link zu dieser Seite: Wetter im Erzgebirge am 02.02.2016
Performance-Info: Die Erstellung der Seite / Statistik(en) / Tabelle(n) erforderte 5 Datenbankserver-Abfrage(n) und dauerte 99 Millisekunden. (Dieser Messwert ist von der Gesamt-Auslastung des Servers abhängig.)
Erzgebirge - Wetter | Erzgebirge - Wetter (Mobilgeräte) | Komplette Klimadatenbank